Time;durP1;ratioP1;P1;durP2;ratioP2;P2;SDS_P1;SDS_P2;PMS_P1;PMS_P2;Temp;Humidity;BMP_temperature;BMP_pressure;BME280_temperature;BME280_humidity;BME280_pressure;Samples;Min_cycle;Max_cycle;Signal;HPM_P1;HPM_P2
2022/04/28 00:00:24;;;;;;;7.30;3.20;;;7.50;99.90;;;;;;5071428;28;20056;-70
2022/04/28 00:02:52;;;;;;;7.50;3.60;;;7.50;99.90;;;;;;5070815;28;20056;-70
2022/04/28 00:05:19;;;;;;;8.57;3.35;;;7.50;99.90;;;;;;5069619;28;20068;-71
2022/04/28 00:07:46;;;;;;;6.90;3.40;;;7.50;99.90;;;;;;5069117;28;20059;-71
2022/04/28 00:10:13;;;;;;;6.60;3.78;;;7.40;99.90;;;;;;5086763;28;20062;-70
2022/04/28 00:12:40;;;;;;;7.10;3.28;;;7.40;99.90;;;;;;5070467;28;20048;-70
2022/04/28 00:15:08;;;;;;;6.72;4.00;;;7.30;99.90;;;;;;5052980;28;20131;-70
2022/04/28 00:17:35;;;;;;;6.63;3.08;;;7.30;99.90;;;;;;5069183;28;20044;-69
2022/04/28 00:20:02;;;;;;;7.90;3.47;;;7.30;99.90;;;;;;5070580;28;20407;-70
2022/04/28 00:22:30;;;;;;;6.20;3.35;;;7.30;99.90;;;;;;5071038;28;20545;-71
2022/04/28 00:24:57;;;;;;;8.30;3.85;;;7.20;99.90;;;;;;5073759;28;20535;-71
2022/04/28 00:27:24;;;;;;;11.20;4.65;;;7.20;99.90;;;;;;5090068;28;20083;-71
2022/04/28 00:29:50;;;;;;;8.63;4.00;;;7.20;99.90;;;;;;5070008;28;20492;-71
2022/04/28 00:32:17;;;;;;;9.85;4.03;;;7.20;99.90;;;;;;5069449;28;20416;-71
2022/04/28 00:34:46;;;;;;;9.65;3.88;;;7.20;99.90;;;;;;5069164;28;20074;-71
2022/04/28 00:37:14;;;;;;;9.57;4.00;;;7.10;99.90;;;;;;5068979;28;20060;-70
2022/04/28 00:39:41;;;;;;;7.10;3.85;;;7.10;99.90;;;;;;5070131;28;20046;-71
2022/04/28 00:42:12;;;;;;;5.63;3.60;;;7.10;99.90;;;;;;5072669;28;20048;-71
2022/04/28 00:44:39;;;;;;;8.73;3.88;;;7.10;99.90;;;;;;5090751;28;20056;-71
2022/04/28 00:47:07;;;;;;;10.20;3.63;;;7.00;99.90;;;;;;5072879;28;20036;-71
2022/04/28 00:52:20;;;;;;;7.95;4.07;;;7.00;99.90;;;;;;5074436;28;20048;-71
2022/04/28 00:54:47;;;;;;;10.57;4.72;;;6.90;99.90;;;;;;5090030;28;20048;-69
2022/04/28 00:57:14;;;;;;;6.63;4.10;;;6.90;99.90;;;;;;5076402;28;20048;-71
2022/04/28 00:59:41;;;;;;;7.53;4.53;;;6.90;99.90;;;;;;5072347;28;20051;-71
2022/04/28 01:02:10;;;;;;;15.23;5.50;;;6.90;99.90;;;;;;5071952;28;20048;-71
2022/04/28 01:04:38;;;;;;;8.48;4.45;;;6.90;99.90;;;;;;5072698;28;20056;-71
2022/04/28 01:07:05;;;;;;;9.65;4.70;;;6.90;99.90;;;;;;5074297;28;20557;-72
2022/04/28 01:09:36;;;;;;;13.25;4.53;;;6.90;99.90;;;;;;5074381;28;20059;-70
2022/04/28 01:12:07;;;;;;;8.45;4.10;;;6.90;99.90;;;;;;5071460;28;20036;-70
2022/04/28 01:14:34;;;;;;;11.27;4.40;;;6.90;99.90;;;;;;5073352;28;20048;-69
2022/04/28 01:17:02;;;;;;;12.23;5.15;;;6.80;99.90;;;;;;5072844;28;20493;-69
2022/04/28 01:19:29;;;;;;;11.32;4.53;;;6.90;99.90;;;;;;5089723;28;20075;-68
2022/04/28 01:21:56;;;;;;;11.88;5.07;;;6.90;99.90;;;;;;5072243;28;20060;-74
2022/04/28 01:24:23;;;;;;;12.25;5.47;;;6.90;99.90;;;;;;5088986;28;20049;-70
2022/04/28 01:26:52;;;;;;;9.05;5.95;;;7.00;99.90;;;;;;5072344;28;20052;-70
2022/04/28 01:29:20;;;;;;;9.65;5.13;;;7.00;99.90;;;;;;5088494;28;20052;-69
2022/04/28 01:31:47;;;;;;;13.65;5.00;;;7.00;99.90;;;;;;5072371;28;20052;-70
2022/04/28 01:34:13;;;;;;;9.75;4.50;;;7.10;99.90;;;;;;5073072;28;20048;-69
2022/04/28 01:36:40;;;;;;;10.88;6.03;;;7.10;99.90;;;;;;5071870;28;20036;-69
2022/04/28 01:39:10;;;;;;;13.32;4.78;;;7.10;99.90;;;;;;5073912;28;20410;-69
2022/04/28 01:41:37;;;;;;;11.00;4.60;;;7.10;99.90;;;;;;5088925;28;20056;-70
2022/04/28 01:44:04;;;;;;;11.85;6.22;;;7.10;99.90;;;;;;5071907;28;20127;-70
2022/04/28 01:46:31;;;;;;;15.95;5.35;;;7.10;99.90;;;;;;5088683;28;20109;-69
2022/04/28 01:48:58;;;;;;;9.00;5.78;;;7.00;99.90;;;;;;5072693;28;20502;-69
2022/04/28 01:56:55;;;;;;;17.40;6.68;;;7.00;99.90;;;;;;5073246;28;20054;-74
2022/04/28 01:59:22;;;;;;;10.50;4.75;;;7.00;99.90;;;;;;5071442;28;20132;-69
2022/04/28 02:01:49;;;;;;;12.27;5.88;;;7.00;99.90;;;;;;5087065;28;20045;-70
2022/04/28 02:04:16;;;;;;;15.68;6.72;;;6.90;99.90;;;;;;5072228;28;20045;-69
2022/04/28 02:06:43;;;;;;;14.20;5.80;;;6.90;99.90;;;;;;5089260;28;20402;-69
2022/04/28 02:09:11;;;;;;;15.13;4.82;;;6.90;99.90;;;;;;5087197;28;20049;-69
2022/04/28 02:11:38;;;;;;;18.00;7.45;;;6.80;99.90;;;;;;5073174;28;20423;-69
2022/04/28 02:14:05;;;;;;;11.45;5.68;;;6.80;99.90;;;;;;5088101;28;20048;-69
2022/04/28 02:16:32;;;;;;;11.77;5.25;;;6.80;99.90;;;;;;5071534;28;20400;-70
2022/04/28 02:18:59;;;;;;;13.27;6.25;;;6.80;99.90;;;;;;5072510;28;20041;-69
2022/04/28 02:21:25;;;;;;;13.15;5.60;;;6.70;99.90;;;;;;5072152;28;20044;-69
2022/04/28 02:23:52;;;;;;;10.85;5.60;;;6.70;99.90;;;;;;5070738;28;20052;-70
2022/04/28 02:26:19;;;;;;;11.98;5.78;;;6.70;99.90;;;;;;5072826;28;20048;-70
2022/04/28 02:28:46;;;;;;;12.18;6.20;;;6.60;99.90;;;;;;5073145;28;20047;-70
2022/04/28 02:31:13;;;;;;;14.13;5.38;;;6.60;99.90;;;;;;5070791;28;20063;-71
2022/04/28 02:33:40;;;;;;;10.90;5.68;;;6.60;99.90;;;;;;5072147;28;20056;-70
2022/04/28 02:36:07;;;;;;;12.15;6.18;;;6.60;99.90;;;;;;5070223;28;20069;-69
2022/04/28 02:38:34;;;;;;;11.98;5.57;;;6.60;99.90;;;;;;5071568;28;20048;-70
2022/04/28 02:41:01;;;;;;;9.50;6.03;;;6.60;99.90;;;;;;5070970;28;20055;-70
2022/04/28 02:43:28;;;;;;;14.55;5.50;;;6.60;99.90;;;;;;5072068;28;20072;-71
2022/04/28 02:45:55;;;;;;;9.60;5.85;;;6.60;99.90;;;;;;5069466;28;20426;-69
2022/04/28 02:48:22;;;;;;;14.73;7.55;;;6.60;99.90;;;;;;5071351;28;20062;-69
2022/04/28 02:50:49;;;;;;;8.50;5.18;;;6.50;99.90;;;;;;5086982;28;20052;-70
2022/04/28 02:53:16;;;;;;;13.43;5.60;;;6.50;99.90;;;;;;5067775;28;20056;-70
2022/04/28 02:55:43;;;;;;;16.25;6.07;;;6.50;99.90;;;;;;5071185;28;20045;-69
2022/04/28 02:58:10;;;;;;;14.88;5.22;;;6.40;99.90;;;;;;5073936;28;20049;-70
2022/04/28 03:00:37;;;;;;;14.88;6.00;;;6.40;99.90;;;;;;5087783;28;20041;-70
2022/04/28 03:03:04;;;;;;;13.75;6.25;;;6.40;99.90;;;;;;5070375;28;20056;-70
2022/04/28 03:10:46;;;;;;;13.07;6.10;;;6.30;99.90;;;;;;5070468;28;20151;-70
2022/04/28 03:11:04;;;;;;;16.73;6.50;;;6.40;99.90;;;;;;5069778;28;20499;-70
2022/04/28 03:13:32;;;;;;;11.68;5.60;;;6.30;99.90;;;;;;5081331;28;20048;-70
2022/04/28 03:16:00;;;;;;;13.15;5.28;;;6.30;99.90;;;;;;5070230;28;20507;-70
2022/04/28 03:18:27;;;;;;;15.50;5.53;;;6.30;99.90;;;;;;5071402;28;20063;-73
2022/04/28 03:20:54;;;;;;;10.68;5.50;;;6.30;99.90;;;;;;5071807;28;20044;-70
2022/04/28 03:23:22;;;;;;;11.73;5.50;;;6.30;99.90;;;;;;5070995;28;20429;-70
2022/04/28 03:25:51;;;;;;;11.27;5.05;;;6.30;99.90;;;;;;5087397;28;20052;-70
2022/04/28 03:28:19;;;;;;;16.83;5.82;;;6.30;99.90;;;;;;5071019;28;20048;-70
2022/04/28 03:30:48;;;;;;;10.18;5.32;;;6.20;99.90;;;;;;5070365;28;20514;-70
2022/04/28 03:33:15;;;;;;;12.18;5.60;;;6.20;99.90;;;;;;5069116;28;20043;-70
2022/04/28 03:35:42;;;;;;;11.63;5.90;;;6.20;99.90;;;;;;5069349;28;20052;-70
2022/04/28 03:38:13;;;;;;;11.93;5.30;;;6.20;99.90;;;;;;5071190;28;20110;-70
2022/04/28 03:40:40;;;;;;;15.05;6.00;;;6.20;99.90;;;;;;5069072;28;20055;-71
2022/04/28 03:43:07;;;;;;;10.80;5.38;;;6.20;99.90;;;;;;5069174;28;20065;-71
2022/04/28 03:45:34;;;;;;;18.30;5.68;;;6.20;99.90;;;;;;5071168;28;20044;-70
2022/04/28 03:48:01;;;;;;;10.25;5.60;;;6.10;99.90;;;;;;5069833;28;20048;-74
2022/04/28 03:50:29;;;;;;;12.27;5.43;;;6.10;99.90;;;;;;5068924;28;20063;-70
2022/04/28 03:52:59;;;;;;;12.25;5.70;;;6.10;99.90;;;;;;5069409;28;20052;-70
2022/04/28 03:55:26;;;;;;;16.55;6.50;;;6.10;99.90;;;;;;5068186;28;20052;-70
2022/04/28 03:57:53;;;;;;;13.82;5.72;;;6.10;99.90;;;;;;5052957;28;20049;-71
2022/04/28 04:00:20;;;;;;;12.00;5.50;;;6.10;99.90;;;;;;5069074;28;20045;-69
2022/04/28 04:02:47;;;;;;;13.98;5.80;;;6.10;99.90;;;;;;5068364;28;20040;-72
2022/04/28 04:05:14;;;;;;;11.38;5.82;;;6.00;99.90;;;;;;5068976;28;20040;-69
2022/04/28 04:07:42;;;;;;;12.75;5.68;;;6.00;99.90;;;;;;5069241;28;20055;-69
2022/04/28 04:10:13;;;;;;;8.48;5.28;;;6.00;99.90;;;;;;5086069;28;20055;-70
2022/04/28 04:12:40;;;;;;;9.65;5.88;;;5.90;99.90;;;;;;5069857;28;20044;-69
2022/04/28 04:15:08;;;;;;;11.85;5.50;;;5.80;99.90;;;;;;5069976;28;20049;-71
2022/04/28 04:17:41;;;;;;;6.70;4.90;;;5.70;99.90;;;;;;5074389;28;20041;-68
2022/04/28 04:20:09;;;;;;;9.20;5.05;;;5.70;99.90;;;;;;5073147;28;20045;-70
2022/04/28 04:22:36;;;;;;;11.85;4.97;;;5.50;99.90;;;;;;5073298;28;20053;-68
2022/04/28 04:25:04;;;;;;;9.57;5.47;;;5.50;99.90;;;;;;5072548;28;20044;-69
2022/04/28 04:27:30;;;;;;;11.52;4.68;;;5.40;99.90;;;;;;5086836;28;20053;-68
2022/04/28 04:29:57;;;;;;;10.23;5.32;;;5.40;99.90;;;;;;5072434;28;20348;-69
2022/04/28 04:32:27;;;;;;;20.67;6.47;;;5.40;99.90;;;;;;5058624;28;20053;-69
2022/04/28 04:34:54;;;;;;;10.90;5.72;;;5.30;99.90;;;;;;5061126;28;20065;-69
2022/04/28 04:37:21;;;;;;;15.45;5.15;;;5.30;99.90;;;;;;5053168;28;20048;-70
2022/04/28 04:39:51;;;;;;;16.38;6.20;;;5.40;99.90;;;;;;5067432;28;20124;-69
2022/04/28 04:42:18;;;;;;;12.20;6.97;;;5.30;99.90;;;;;;5071011;28;20140;-70
2022/04/28 04:44:45;;;;;;;10.07;6.22;;;5.30;99.90;;;;;;5067402;28;20068;-69
2022/04/28 04:47:12;;;;;;;13.13;6.35;;;5.30;99.90;;;;;;5068413;28;20377;-69
2022/04/28 04:49:39;;;;;;;14.40;6.63;;;5.30;99.90;;;;;;5070664;28;20384;-70
2022/04/28 04:52:06;;;;;;;10.52;6.43;;;5.40;99.90;;;;;;5063970;28;20045;-69
2022/04/28 04:54:33;;;;;;;13.93;6.60;;;5.40;99.90;;;;;;5073271;28;20040;-70
2022/04/28 04:57:00;;;;;;;14.02;6.47;;;5.50;99.90;;;;;;5069056;28;20045;-69
2022/04/28 04:59:27;;;;;;;22.17;7.10;;;5.60;99.90;;;;;;5069935;28;20045;-70
2022/04/28 05:01:54;;;;;;;13.80;5.82;;;5.60;99.90;;;;;;5084126;28;20457;-70
2022/04/28 05:04:21;;;;;;;15.73;6.70;;;5.70;99.90;;;;;;5058542;28;20083;-70
2022/04/28 05:06:48;;;;;;;9.35;5.68;;;5.80;99.90;;;;;;5081081;28;20051;-70
2022/04/28 05:09:15;;;;;;;13.85;7.75;;;5.80;99.90;;;;;;5074211;28;20044;-70
2022/04/28 05:11:42;;;;;;;13.02;6.65;;;5.90;99.90;;;;;;5072620;28;20044;-70
2022/04/28 05:14:09;;;;;;;14.02;5.93;;;6.00;99.90;;;;;;5072003;28;20121;-70
2022/04/28 05:16:36;;;;;;;21.38;7.97;;;6.10;99.90;;;;;;5068824;28;20048;-70
2022/04/28 05:19:03;;;;;;;9.43;5.53;;;6.10;99.90;;;;;;5074380;28;20056;-70
2022/04/28 05:21:30;;;;;;;16.02;7.65;;;6.20;99.90;;;;;;5073478;28;20140;-70
2022/04/28 05:23:57;;;;;;;11.68;6.22;;;6.30;99.90;;;;;;5072848;28;20059;-70
2022/04/28 05:26:25;;;;;;;12.60;5.82;;;6.40;99.90;;;;;;5072052;28;20048;-70
2022/04/28 05:28:51;;;;;;;14.85;6.40;;;6.50;99.90;;;;;;5073501;28;20491;-70
2022/04/28 05:31:18;;;;;;;11.85;6.28;;;6.70;99.90;;;;;;5071616;28;20045;-70
2022/04/28 05:33:45;;;;;;;13.25;6.90;;;6.90;99.90;;;;;;5070986;28;20047;-70
2022/04/28 05:36:15;;;;;;;14.35;7.20;;;7.00;99.90;;;;;;5071362;28;20761;-71
2022/04/28 05:38:43;;;;;;;9.70;6.22;;;7.10;99.90;;;;;;5072005;28;20135;-70
2022/04/28 05:41:10;;;;;;;11.38;6.40;;;7.10;99.90;;;;;;5088880;28;20080;-70
2022/04/28 05:46:23;;;;;;;10.52;6.65;;;7.30;99.90;;;;;;5072743;28;20052;-70
2022/04/28 05:48:50;;;;;;;15.93;7.30;;;7.30;99.90;;;;;;5071016;28;20352;-70
2022/04/28 05:51:18;;;;;;;14.68;6.15;;;7.40;99.90;;;;;;5088005;28;20411;-64
2022/04/28 05:53:45;;;;;;;16.52;6.43;;;7.40;99.90;;;;;;5072653;28;20526;-65
2022/04/28 05:56:12;;;;;;;62.95;41.72;;;7.40;99.90;;;;;;5073223;28;20079;-67
2022/04/28 05:58:39;;;;;;;27.52;16.88;;;7.50;99.90;;;;;;5071386;28;20048;-68
2022/04/28 06:01:05;;;;;;;15.40;8.07;;;7.50;99.90;;;;;;5072230;28;20103;-68
2022/04/28 06:03:33;;;;;;;9.85;7.03;;;7.60;99.90;;;;;;5061263;28;20432;-65
2022/04/28 06:06:00;;;;;;;13.25;6.22;;;7.70;99.90;;;;;;5070943;28;20055;-72
2022/04/28 06:08:27;;;;;;;13.25;6.55;;;7.70;99.90;;;;;;5070932;28;20119;-71
2022/04/28 06:10:57;;;;;;;12.85;7.32;;;7.80;99.90;;;;;;5072252;28;20047;-71
2022/04/28 06:13:24;;;;;;;12.05;6.72;;;7.90;99.90;;;;;;5072041;28;20048;-72
2022/04/28 06:15:51;;;;;;;15.55;7.03;;;8.00;99.90;;;;;;5072406;28;20041;-71
2022/04/28 06:18:18;;;;;;;10.73;6.35;;;8.10;99.90;;;;;;5072320;28;20710;-67
2022/04/28 06:20:45;;;;;;;34.83;22.42;;;8.20;99.90;;;;;;5066709;28;20045;-70
2022/04/28 06:23:12;;;;;;;25.58;9.50;;;8.30;99.90;;;;;;5053414;28;20045;-71
2022/04/28 06:25:39;;;;;;;11.85;6.13;;;8.40;99.90;;;;;;5073802;28;20044;-70
2022/04/28 06:28:06;;;;;;;11.95;7.00;;;8.60;99.90;;;;;;5067973;28;20040;-71
2022/04/28 06:30:33;;;;;;;9.27;5.97;;;8.70;99.90;;;;;;5071330;28;20048;-72
2022/04/28 06:33:00;;;;;;;12.75;5.95;;;8.80;99.90;;;;;;5062925;28;20040;-71
2022/04/28 06:35:27;;;;;;;13.18;7.20;;;8.90;99.90;;;;;;5071635;28;20438;-71
2022/04/28 06:37:54;;;;;;;14.38;6.68;;;9.00;99.90;;;;;;5059183;28;20041;-68
2022/04/28 06:40:21;;;;;;;11.63;6.43;;;9.10;99.90;;;;;;5066922;28;20044;-71
2022/04/28 06:42:50;;;;;;;14.90;6.60;;;9.10;99.90;;;;;;5065427;28;20041;-72
2022/04/28 06:45:17;;;;;;;11.93;5.83;;;9.30;99.90;;;;;;5058017;28;20060;-72
2022/04/28 06:47:44;;;;;;;11.25;5.95;;;9.40;99.90;;;;;;5071122;28;20055;-72
2022/04/28 06:50:11;;;;;;;11.93;6.40;;;9.50;99.90;;;;;;5070550;28;20052;-71
2022/04/28 06:52:38;;;;;;;11.75;5.85;;;9.50;99.90;;;;;;5087200;28;20045;-71
2022/04/28 06:55:06;;;;;;;17.70;7.03;;;9.60;99.90;;;;;;5067907;28;20127;-71
2022/04/28 06:57:33;;;;;;;22.00;7.47;;;9.70;99.90;;;;;;5070356;28;20500;-71
2022/04/28 07:00:01;;;;;;;14.43;6.28;;;9.70;99.90;;;;;;5065934;28;20399;-72
2022/04/28 07:02:28;;;;;;;12.50;5.57;;;9.80;99.90;;;;;;5065887;28;20049;-72
2022/04/28 07:04:56;;;;;;;11.32;5.82;;;9.80;99.90;;;;;;5075109;28;20128;-70
2022/04/28 07:07:22;;;;;;;12.27;5.22;;;9.70;99.90;;;;;;5064605;28;20106;-68
2022/04/28 07:09:49;;;;;;;9.43;6.50;;;9.70;99.90;;;;;;5068230;28;20052;-72
2022/04/28 07:12:31;;;;;;;10.45;5.90;;;9.70;99.90;;;;;;5062467;28;20048;-73
2022/04/28 07:14:59;;;;;;;10.50;5.45;;;9.90;99.90;;;;;;5068432;28;20044;-74
2022/04/28 07:17:25;;;;;;;14.38;5.70;;;9.90;99.90;;;;;;5067879;28;20074;-73
2022/04/28 07:19:52;;;;;;;11.07;5.30;;;10.00;99.90;;;;;;5055667;28;20044;-69
2022/04/28 07:22:19;;;;;;;14.13;8.38;;;9.90;99.90;;;;;;5066648;28;20048;-77
2022/04/28 07:24:46;;;;;;;7.40;5.25;;;10.10;99.90;;;;;;5079549;28;20047;-74
2022/04/28 07:27:13;;;;;;;10.70;5.43;;;10.10;99.90;;;;;;5060685;28;20102;-71
2022/04/28 07:29:40;;;;;;;14.40;5.78;;;10.10;99.90;;;;;;5071713;28;20052;-67
2022/04/28 07:32:10;;;;;;;17.48;12.48;;;10.00;99.90;;;;;;5057131;28;20052;-69
2022/04/28 07:34:37;;;;;;;11.55;7.60;;;10.10;99.90;;;;;;5073999;28;20048;-69
2022/04/28 07:37:05;;;;;;;14.13;7.10;;;10.10;99.90;;;;;;5072309;28;20127;-68
2022/04/28 07:39:32;;;;;;;14.68;6.65;;;10.20;99.90;;;;;;5072603;28;20044;-68
2022/04/28 07:41:59;;;;;;;11.23;5.57;;;10.20;99.90;;;;;;5074049;28;20071;-70
2022/04/28 07:44:26;;;;;;;12.23;7.00;;;10.20;99.90;;;;;;5072348;28;20135;-69
2022/04/28 07:46:53;;;;;;;16.23;5.90;;;10.10;99.90;;;;;;5073635;28;20044;-68
2022/04/28 07:49:21;;;;;;;11.40;6.20;;;10.30;99.90;;;;;;5072673;28;20127;-68
2022/04/28 07:51:47;;;;;;;13.05;6.15;;;10.30;99.90;;;;;;5072168;28;20040;-67
2022/04/28 07:54:17;;;;;;;11.45;6.25;;;10.40;99.90;;;;;;5074151;28;20097;-68
2022/04/28 07:56:47;;;;;;;13.05;6.90;;;10.50;99.90;;;;;;5056305;28;20114;-69
2022/04/28 07:59:15;;;;;;;15.60;6.50;;;10.50;99.90;;;;;;5072375;28;20047;-69
2022/04/28 08:01:50;;;;;;;11.25;6.38;;;10.50;99.90;;;;;;5074101;28;20435;-68
2022/04/28 08:04:17;;;;;;;12.85;6.45;;;10.50;99.90;;;;;;5073514;28;20040;-66
2022/04/28 08:06:44;;;;;;;9.35;5.78;;;10.60;99.90;;;;;;5074254;28;20123;-68
2022/04/28 08:09:11;;;;;;;9.18;5.95;;;10.60;99.90;;;;;;5074414;28;20412;-67
2022/04/28 08:11:40;;;;;;;15.05;5.93;;;10.70;99.90;;;;;;5073522;28;20197;-68
2022/04/28 08:14:07;;;;;;;13.57;5.70;;;10.80;99.90;;;;;;5072395;28;20047;-66
2022/04/28 08:16:34;;;;;;;11.80;5.25;;;10.90;99.90;;;;;;5072771;28;20040;-67
2022/04/28 08:19:02;;;;;;;37.63;26.88;;;10.90;99.90;;;;;;5073486;28;20047;-61
2022/04/28 08:21:29;;;;;;;11.80;7.75;;;10.90;99.90;;;;;;5073001;28;20056;-70
2022/04/28 08:23:57;;;;;;;12.85;6.57;;;11.10;99.90;;;;;;5071874;28;20054;-67
2022/04/28 08:26:24;;;;;;;19.52;12.40;;;11.10;99.90;;;;;;5073825;28;20055;-69
2022/04/28 08:28:51;;;;;;;12.68;6.20;;;11.10;99.90;;;;;;5073222;28;20170;-65
2022/04/28 08:31:18;;;;;;;12.27;5.43;;;11.10;99.90;;;;;;5074163;28;20345;-66
2022/04/28 08:33:47;;;;;;;11.70;7.07;;;11.00;99.90;;;;;;5073310;28;20124;-66
2022/04/28 08:36:15;;;;;;;11.67;5.93;;;11.00;99.90;;;;;;5073227;28;20103;-66
2022/04/28 08:38:42;;;;;;;10.05;6.18;;;11.00;99.90;;;;;;5072812;28;20044;-66
2022/04/28 08:41:11;;;;;;;11.48;6.25;;;11.10;99.90;;;;;;5073249;28;20044;-66
2022/04/28 08:43:38;;;;;;;17.98;6.43;;;11.10;99.90;;;;;;5073226;28;20048;-65
2022/04/28 08:48:51;;;;;;;14.52;6.63;;;11.30;99.90;;;;;;5072180;28;20070;-66
2022/04/28 08:51:19;;;;;;;12.10;7.38;;;11.30;99.90;;;;;;5073946;28;20041;-65
2022/04/28 08:53:47;;;;;;;13.15;6.80;;;11.40;99.90;;;;;;5071930;28;20044;-66
2022/04/28 08:56:15;;;;;;;18.25;6.60;;;11.40;99.90;;;;;;5072537;28;20396;-66
2022/04/28 08:58:42;;;;;;;17.17;7.15;;;11.50;99.90;;;;;;5072961;28;20098;-66
2022/04/28 09:01:09;;;;;;;14.43;6.40;;;11.50;99.90;;;;;;5072882;28;20044;-66
2022/04/28 09:03:37;;;;;;;11.43;6.68;;;11.60;99.90;;;;;;5075550;28;20045;-66
2022/04/28 09:06:29;;;;;;;15.55;7.22;;;11.50;99.90;;;;;;5062510;28;20072;-66
2022/04/28 09:09:05;;;;;;;11.50;6.30;;;11.70;99.90;;;;;;5075219;28;20049;-66
2022/04/28 09:11:35;;;;;;;17.45;7.32;;;11.70;99.90;;;;;;5076382;28;20176;-66
2022/04/28 09:14:15;;;;;;;15.82;6.85;;;11.70;99.90;;;;;;5075616;28;20374;-66
2022/04/28 09:16:46;;;;;;;12.45;6.15;;;11.70;99.90;;;;;;5077314;28;20040;-65
2022/04/28 09:19:22;;;;;;;17.13;7.03;;;11.70;99.90;;;;;;5076144;28;20037;-65
2022/04/28 09:21:50;;;;;;;15.25;6.78;;;11.90;99.90;;;;;;5075006;28;20063;-65
2022/04/28 09:24:17;;;;;;;16.30;7.30;;;12.00;99.90;;;;;;5076054;28;20059;-66
2022/04/28 09:26:44;;;;;;;11.32;6.85;;;11.90;99.90;;;;;;5075005;28;20055;-65
2022/04/28 09:29:15;;;;;;;14.18;6.97;;;12.00;99.90;;;;;;5077013;28;20177;-65
2022/04/28 09:31:46;;;;;;;11.88;6.38;;;12.10;99.90;;;;;;5076336;28;20482;-66
2022/04/28 09:34:33;;;;;;;8.77;6.10;;;12.30;99.90;;;;;;5076284;28;20036;-66
2022/04/28 09:37:01;;;;;;;16.80;7.20;;;12.40;99.90;;;;;;5075888;28;20045;-65
2022/04/28 09:42:33;;;;;;;12.85;6.40;;;12.60;98.90;;;;;;5076135;28;20064;-65
2022/04/28 09:45:01;;;;;;;13.05;5.88;;;12.50;99.60;;;;;;5074997;28;20144;-66
2022/04/28 09:47:29;;;;;;;10.75;6.30;;;12.50;99.40;;;;;;5075671;28;20048;-65
2022/04/28 09:49:57;;;;;;;13.85;6.20;;;12.50;98.20;;;;;;5074967;28;20051;-66
2022/04/28 09:52:32;;;;;;;11.15;6.95;;;12.50;99.70;;;;;;5058599;28;20052;-65
2022/04/28 09:55:01;;;;;;;10.88;7.05;;;12.50;99.30;;;;;;5075602;28;20502;-65
2022/04/28 09:57:27;;;;;;;16.30;7.43;;;12.50;99.10;;;;;;5075487;28;20051;-65
2022/04/28 09:59:55;;;;;;;20.17;7.90;;;12.60;99.20;;;;;;5074290;28;20040;-66
2022/04/28 10:02:25;;;;;;;17.08;7.20;;;12.60;98.00;;;;;;5075802;28;20044;-66
2022/04/28 10:04:59;;;;;;;15.30;6.47;;;12.50;98.30;;;;;;5075907;28;20383;-66
2022/04/28 10:07:25;;;;;;;14.98;6.68;;;12.50;99.70;;;;;;5075900;28;20072;-65
2022/04/28 10:09:52;;;;;;;19.15;9.45;;;12.70;99.50;;;;;;5057812;28;20051;-64
2022/04/28 10:12:25;;;;;;;11.82;7.25;;;12.70;99.20;;;;;;5075799;28;20055;-64
2022/04/28 10:14:54;;;;;;;15.68;7.40;;;12.70;99.10;;;;;;5074442;28;20049;-64
2022/04/28 10:17:31;;;;;;;23.58;7.03;;;12.70;98.70;;;;;;5075317;28;20040;-65
2022/04/28 10:20:01;;;;;;;13.27;6.95;;;12.90;98.20;;;;;;5075030;28;20340;-65
2022/04/28 10:22:31;;;;;;;15.20;8.60;;;12.80;97.90;;;;;;5073881;28;20098;-65
2022/04/28 10:33:24;;;;;;;15.45;7.65;;;13.20;97.20;;;;;;5074122;28;20055;-66
2022/04/28 10:35:55;;;;;;;9.98;7.22;;;13.30;97.60;;;;;;5073506;28;20040;-68
2022/04/28 10:38:26;;;;;;;19.02;9.18;;;13.40;97.10;;;;;;5053480;28;20052;-64
2022/04/28 10:41:06;;;;;;;11.55;8.00;;;13.60;96.40;;;;;;5055687;28;20049;-70
2022/04/28 10:43:33;;;;;;;10.70;7.50;;;13.70;94.00;;;;;;5053598;28;20048;-65
2022/04/28 10:46:22;;;;;;;13.07;7.72;;;13.60;93.90;;;;;;5055359;28;20036;-70
2022/04/28 10:49:01;;;;;;;12.93;8.30;;;13.60;93.30;;;;;;5050719;28;20049;-68
2022/04/28 10:51:32;;;;;;;12.95;7.03;;;13.70;93.20;;;;;;5053385;28;20045;-68
2022/04/28 10:54:19;;;;;;;11.60;7.47;;;13.70;92.30;;;;;;5054701;28;20412;-67
2022/04/28 10:56:52;;;;;;;10.38;7.00;;;13.80;92.40;;;;;;5054748;28;20041;-72
2022/04/28 10:59:26;;;;;;;10.50;8.25;;;13.80;92.20;;;;;;5053012;28;20045;-73
2022/04/28 11:01:53;;;;;;;14.65;7.35;;;13.80;92.10;;;;;;5053291;28;20049;-71
2022/04/28 11:04:22;;;;;;;11.82;8.18;;;13.70;91.90;;;;;;5036533;28;20045;-70
2022/04/28 11:06:56;;;;;;;16.90;9.43;;;13.80;93.00;;;;;;5053244;28;20044;-73
2022/04/28 11:09:39;;;;;;;11.18;8.43;;;13.90;93.70;;;;;;5036611;28;20048;-74
2022/04/28 11:12:27;;;;;;;13.30;6.90;;;13.80;92.30;;;;;;5037880;28;20056;-66
2022/04/28 11:15:06;;;;;;;14.43;7.60;;;13.80;93.70;;;;;;5054688;28;20063;-68
2022/04/28 11:17:36;;;;;;;15.32;8.32;;;13.90;92.90;;;;;;5052729;28;20045;-69
2022/04/28 11:20:12;;;;;;;11.48;8.13;;;14.10;93.80;;;;;;5037672;28;20041;-78
2022/04/28 11:22:54;;;;;;;16.50;8.15;;;13.90;93.40;;;;;;5054745;28;20366;-63
2022/04/28 11:25:22;;;;;;;12.57;8.15;;;14.00;93.60;;;;;;5052474;28;20069;-64
2022/04/28 11:27:51;;;;;;;11.65;7.90;;;14.20;93.00;;;;;;5054819;28;20045;-62
2022/04/28 11:30:22;;;;;;;12.90;8.18;;;14.20;93.10;;;;;;5053730;28;20041;-64
2022/04/28 11:32:53;;;;;;;17.50;8.30;;;14.00;92.50;;;;;;5052753;28;20123;-64
2022/04/28 11:35:20;;;;;;;14.30;7.93;;;14.00;93.00;;;;;;5036040;28;20064;-65
2022/04/28 11:37:52;;;;;;;16.00;8.43;;;14.00;93.40;;;;;;5052197;28;20055;-65
2022/04/28 11:40:19;;;;;;;20.60;8.27;;;14.10;92.90;;;;;;5052455;28;20427;-64
2022/04/28 11:43:01;;;;;;;18.70;8.45;;;14.20;93.20;;;;;;5054278;28;20063;-73
2022/04/28 11:45:30;;;;;;;16.23;9.65;;;14.30;93.20;;;;;;5037179;28;20045;-72
2022/04/28 11:47:59;;;;;;;18.58;12.52;;;14.40;92.20;;;;;;5054480;28;20059;-72
2022/04/28 11:50:32;;;;;;;15.88;8.02;;;14.40;93.00;;;;;;5052422;28;20060;-72
2022/04/28 11:53:12;;;;;;;14.85;9.18;;;14.50;91.90;;;;;;5052253;28;20044;-73
2022/04/28 11:55:40;;;;;;;14.07;9.30;;;14.50;91.40;;;;;;5052314;28;20088;-71
2022/04/28 11:58:09;;;;;;;14.85;8.90;;;14.50;91.40;;;;;;5035768;28;20088;-73
2022/04/28 12:00:43;;;;;;;14.52;8.38;;;14.40;91.60;;;;;;5035705;28;20468;-73
2022/04/28 12:03:25;;;;;;;14.23;8.65;;;14.40;91.60;;;;;;5053253;28;20047;-70
2022/04/28 12:05:53;;;;;;;15.90;8.13;;;14.40;91.40;;;;;;5053162;28;20095;-68
2022/04/28 12:08:24;;;;;;;10.00;7.57;;;14.50;92.10;;;;;;5051934;28;20048;-69
2022/04/28 12:19:19;;;;;;;14.68;8.73;;;14.70;91.20;;;;;;5051996;28;20048;-70
2022/04/28 12:19:20;;;;;;;14.43;8.27;;;14.80;91.10;;;;;;5052249;28;20045;-70
2022/04/28 12:21:47;;;;;;;15.07;9.57;;;14.70;90.50;;;;;;5053369;28;20481;-70
2022/04/28 12:24:15;;;;;;;16.15;9.68;;;14.70;90.20;;;;;;5053086;28;20041;-71
2022/04/28 12:26:44;;;;;;;19.07;9.67;;;14.70;90.30;;;;;;5035519;28;20052;-71
2022/04/28 12:29:14;;;;;;;12.93;8.85;;;14.80;91.50;;;;;;5035779;28;20427;-72
2022/04/28 12:31:41;;;;;;;12.60;8.43;;;15.00;90.90;;;;;;5035381;28;20036;-70
2022/04/28 12:34:20;;;;;;;15.40;7.65;;;15.10;91.00;;;;;;5053662;28;20036;-72
2022/04/28 12:36:48;;;;;;;13.60;8.30;;;15.20;90.40;;;;;;5053315;28;20045;-72
2022/04/28 12:39:19;;;;;;;11.13;8.18;;;15.10;90.70;;;;;;5056739;28;20044;-70
2022/04/28 12:41:47;;;;;;;14.77;9.68;;;15.10;89.40;;;;;;5057574;28;20433;-64
2022/04/28 12:44:14;;;;;;;14.45;8.93;;;15.10;90.60;;;;;;5056882;28;20392;-64
2022/04/28 12:46:49;;;;;;;13.07;7.75;;;15.10;88.30;;;;;;5055819;28;20468;-65
2022/04/28 12:49:16;;;;;;;14.10;7.57;;;15.00;89.90;;;;;;5056586;28;20132;-65
2022/04/28 12:51:45;;;;;;;13.63;7.50;;;15.10;89.90;;;;;;5056330;28;20068;-64
2022/04/28 12:54:12;;;;;;;11.40;8.80;;;15.00;90.30;;;;;;5056502;28;20052;-64
2022/04/28 12:56:43;;;;;;;13.88;8.10;;;14.80;90.30;;;;;;5055366;28;20045;-61
2022/04/28 12:59:11;;;;;;;10.13;6.63;;;14.80;91.20;;;;;;5056470;28;20075;-64
2022/04/28 13:01:38;;;;;;;11.73;8.13;;;14.90;90.10;;;;;;5056764;28;20072;-68
2022/04/28 13:04:07;;;;;;;21.10;9.13;;;14.90;89.90;;;;;;5055696;28;20041;-68
2022/04/28 13:06:37;;;;;;;13.70;8.27;;;14.80;90.40;;;;;;5039628;28;20071;-70
2022/04/28 13:09:07;;;;;;;13.45;8.02;;;14.80;90.10;;;;;;5055577;28;20472;-73
2022/04/28 13:11:35;;;;;;;9.15;7.63;;;14.80;90.40;;;;;;5055147;28;20575;-70
2022/04/28 13:14:04;;;;;;;16.80;8.43;;;14.70;90.10;;;;;;5056476;28;20043;-66
2022/04/28 13:16:31;;;;;;;16.27;9.65;;;14.70;91.50;;;;;;5054898;28;20040;-66
2022/04/28 13:18:58;;;;;;;15.38;8.35;;;14.80;90.70;;;;;;5038637;28;20088;-68
2022/04/28 13:21:25;;;;;;;14.07;8.30;;;14.80;90.40;;;;;;5038735;28;20052;-67
2022/04/28 13:23:54;;;;;;;16.15;7.43;;;14.90;91.00;;;;;;5056342;28;20053;-68